首页
METAR-TAF:

METAR-TAF

机场 :

洛迦诺, 瑞士

纬度: 46-09-55N, 经度: 8-52-40E, 海拔: 198米

当前天气观测

该预报发布于16分钟前的09:20 UTC
风速4节,风向西转西南,在南转西南西之间变化
温度 13°C
湿度 54%
气压 1013 hPa
能见度10公里或以上
少量云层高于10000英尺
散云层高于12000英尺

METAR: LSZL 290920Z AUTO 24004KT 210V270 9999NDV FEW100 SCT120 13/04 Q1013 RMK

时间: 11:36 (09:36 UTC)


TAF: 丢失

超过4000个机场的气象观测和天气预报(METAR&TAF报告)。

可查询的气象台以黄色和红色小点在地图上表示。

将鼠标移到小点上方,可查看气象台名称。

然后点击查看天气观测和预报。

如需切换地图:点击带黑十字的绿色按钮放大地图;点击带横线的绿色按钮缩小地图;或者点击绿色箭头查看邻近地区的地图。


METAR-TAF: